sensor_id;sensor_type;location;lat;lon;timestamp;pressure;altitude;pressure_sealevel;temperature;humidity
30714;BME280;17465;47.934;33.430;2023-02-01T00:01:09;57447.99;;;-140.43;100.00
30714;BME280;17465;47.934;33.430;2023-02-01T00:03:39;57458.58;;;-140.43;100.00
30714;BME280;17465;47.934;33.430;2023-02-01T00:06:11;57457.52;;;-140.43;100.00
30714;BME280;17465;47.934;33.430;2023-02-01T00:08:43;57416.21;;;-140.43;100.00
30714;BME280;17465;47.934;33.430;2023-02-01T00:11:27;57435.28;;;-140.43;100.00
30714;BME280;17465;47.934;33.430;2023-02-01T00:13:58;57435.28;;;-140.43;100.00
30714;BME280;17465;47.934;33.430;2023-02-01T00:16:30;57442.69;;;-140.43;100.00
30714;BME280;17465;47.934;33.430;2023-02-01T00:19:04;57442.69;;;-140.43;100.00
30714;BME280;17465;47.934;33.430;2023-02-01T00:21:35;57476.58;;;-140.43;100.00
30714;BME280;17465;47.934;33.430;2023-02-01T00:24:09;57436.34;;;-140.43;100.00
30714;BME280;17465;47.934;33.430;2023-02-01T00:26:43;57429.98;;;-140.43;100.00
30714;BME280;17465;47.934;33.430;2023-02-01T00:29:21;57429.98;;;-140.43;100.00
30714;BME280;17465;47.934;33.430;2023-02-01T00:32:21;57445.87;;;-140.43;100.00
30714;BME280;17465;47.934;33.430;2023-02-01T00:37:54;57437.39;;;-140.43;100.00
30714;BME280;17465;47.934;33.430;2023-02-01T00:40:25;57437.39;;;-140.43;100.00
30714;BME280;17465;47.934;33.430;2023-02-01T00:42:56;57422.57;;;-140.43;100.00
30714;BME280;17465;47.934;33.430;2023-02-01T00:45:26;57451.16;;;-140.43;100.00
30714;BME280;17465;47.934;33.430;2023-02-01T00:47:57;57451.16;;;-140.43;100.00
30714;BME280;17465;47.934;33.430;2023-02-01T00:50:27;57440.57;;;-140.43;100.00
30714;BME280;17465;47.934;33.430;2023-02-01T00:52:58;57434.22;;;-140.43;100.00
30714;BME280;17465;47.934;33.430;2023-02-01T00:55:29;57434.22;;;-140.43;100.00
30714;BME280;17465;47.934;33.430;2023-02-01T00:58:02;57455.40;;;-140.43;100.00
30714;BME280;17465;47.934;33.430;2023-02-01T01:00:33;57435.28;;;-140.43;100.00
30714;BME280;17465;47.934;33.430;2023-02-01T01:03:03;57435.28;;;-140.43;100.00
30714;BME280;17465;47.934;33.430;2023-02-01T01:05:35;57426.80;;;-140.43;100.00
30714;BME280;17465;47.934;33.430;2023-02-01T01:08:07;57443.75;;;-140.43;100.00
30714;BME280;17465;47.934;33.430;2023-02-01T01:10:39;57487.18;;;-140.43;100.00
30714;BME280;17465;47.934;33.430;2023-02-01T01:13:10;57487.18;;;-140.43;100.00
30714;BME280;17465;47.934;33.430;2023-02-01T01:15:41;57462.82;;;-140.43;100.00
30714;BME280;17465;47.934;33.430;2023-02-01T01:18:12;57422.57;;;-140.43;100.00
30714;BME280;17465;47.934;33.430;2023-02-01T01:20:44;57445.87;;;-140.43;100.00
30714;BME280;17465;47.934;33.430;2023-02-01T01:23:14;57456.46;;;-140.43;100.00
30714;BME280;17465;47.934;33.430;2023-02-01T01:25:44;57481.88;;;-140.43;100.00
30714;BME280;17465;47.934;33.430;2023-02-01T01:28:15;57481.88;;;-140.43;100.00
30714;BME280;17465;47.934;33.430;2023-02-01T01:30:45;57443.75;;;-140.43;100.00
30714;BME280;17465;47.934;33.430;2023-02-01T01:33:16;57451.16;;;-140.43;100.00
30714;BME280;17465;47.934;33.430;2023-02-01T01:35:47;57451.16;;;-140.43;100.00
30714;BME280;17465;47.934;33.430;2023-02-01T01:38:17;57419.39;;;-140.43;100.00
30714;BME280;17465;47.934;33.430;2023-02-01T01:40:48;57461.76;;;-140.43;100.00
30714;BME280;17465;47.934;33.430;2023-02-01T01:43:25;57461.76;;;-140.43;100.00
30714;BME280;17465;47.934;33.430;2023-02-01T01:45:55;57444.81;;;-140.43;100.00
30714;BME280;17465;47.934;33.430;2023-02-01T01:48:30;57439.52;;;-140.43;100.00
30714;BME280;17465;47.934;33.430;2023-02-01T01:51:06;57424.69;;;-140.43;100.00
30714;BME280;17465;47.934;33.430;2023-02-01T01:53:45;57411.98;;;-140.43;100.00
30714;BME280;17465;47.934;33.430;2023-02-01T01:56:11;57443.75;;;-140.43;100.00
30714;BME280;17465;47.934;33.430;2023-02-01T01:58:43;57443.75;;;-140.43;100.00
30714;BME280;17465;47.934;33.430;2023-02-01T02:01:13;57456.46;;;-140.43;100.00
30714;BME280;17465;47.934;33.430;2023-02-01T02:03:45;57444.81;;;-140.43;100.00
30714;BME280;17465;47.934;33.430;2023-02-01T02:06:24;57458.58;;;-140.43;100.00
30714;BME280;17465;47.934;33.430;2023-02-01T02:08:52;57458.58;;;-140.43;100.00
30714;BME280;17465;47.934;33.430;2023-02-01T02:11:23;57452.23;;;-140.43;100.00
30714;BME280;17465;47.934;33.430;2023-02-01T02:13:55;57443.75;;;-140.43;100.00
30714;BME280;17465;47.934;33.430;2023-02-01T02:22:31;57457.52;;;-140.43;100.00
30714;BME280;17465;47.934;33.430;2023-02-01T02:36:53;57458.58;;;-140.43;100.00
30714;BME280;17465;47.934;33.430;2023-02-01T02:42:14;57463.87;;;-140.43;100.00
30714;BME280;17465;47.934;33.430;2023-02-01T02:44:50;57463.87;;;-140.43;100.00
30714;BME280;17465;47.934;33.430;2023-02-01T02:52:57;57450.11;;;-140.43;100.00
30714;BME280;17465;47.934;33.430;2023-02-01T02:55:29;57456.46;;;-140.43;100.00
30714;BME280;17465;47.934;33.430;2023-02-01T02:58:01;57456.46;;;-140.43;100.00
30714;BME280;17465;47.934;33.430;2023-02-01T03:00:33;57458.58;;;-140.43;100.00
30714;BME280;17465;47.934;33.430;2023-02-01T03:03:06;57462.82;;;-140.43;100.00
30714;BME280;17465;47.934;33.430;2023-02-01T03:09:13;57459.64;;;-140.43;100.00
30714;BME280;17465;47.934;33.430;2023-02-01T03:12:03;57459.64;;;-140.43;100.00
30714;BME280;17465;47.934;33.430;2023-02-01T03:14:48;57467.05;;;-140.43;100.00
30714;BME280;17465;47.934;33.430;2023-02-01T03:17:22;57457.52;;;-140.43;100.00
30714;BME280;17465;47.934;33.430;2023-02-01T03:19:54;57457.52;;;-140.43;100.00
30714;BME280;17465;47.934;33.430;2023-02-01T03:22:27;57452.23;;;-140.43;100.00
30714;BME280;17465;47.934;33.430;2023-02-01T03:25:10;57461.76;;;-140.43;100.00
30714;BME280;17465;47.934;33.430;2023-02-01T03:27:44;57462.82;;;-140.43;100.00
30714;BME280;17465;47.934;33.430;2023-02-01T03:30:33;57454.34;;;-140.43;100.00
30714;BME280;17465;47.934;33.430;2023-02-01T03:33:03;57454.34;;;-140.43;100.00
30714;BME280;17465;47.934;33.430;2023-02-01T03:41:50;57464.93;;;-140.43;100.00
30714;BME280;17465;47.934;33.430;2023-02-01T03:46:56;57447.99;;;-140.43;100.00
30714;BME280;17465;47.934;33.430;2023-02-01T03:49:43;57445.87;;;-140.43;100.00
30714;BME280;17465;47.934;33.430;2023-02-01T03:52:16;57451.16;;;-140.43;100.00
30714;BME280;17465;47.934;33.430;2023-02-01T03:54:43;57454.34;;;-140.43;100.00
30714;BME280;17465;47.934;33.430;2023-02-01T03:57:18;57478.70;;;-140.43;100.00
30714;BME280;17465;47.934;33.430;2023-02-01T03:59:50;57447.99;;;-140.43;100.00
30714;BME280;17465;47.934;33.430;2023-02-01T04:02:21;57447.99;;;-140.43;100.00
30714;BME280;17465;47.934;33.430;2023-02-01T04:04:52;57450.11;;;-140.43;100.00
30714;BME280;17465;47.934;33.430;2023-02-01T04:07:22;57450.11;;;-140.43;100.00
30714;BME280;17465;47.934;33.430;2023-02-01T04:09:53;57453.28;;;-140.43;100.00
30714;BME280;17465;47.934;33.430;2023-02-01T08:39:54;57400.33;;;-140.43;96.98
30714;BME280;17465;47.934;33.430;2023-02-01T08:42:25;57400.33;;;-140.43;96.98
30714;BME280;17465;47.934;33.430;2023-02-01T08:44:56;57416.21;;;-140.43;94.93
30714;BME280;17465;47.934;33.430;2023-02-01T08:47:26;57436.34;;;-140.43;91.53
30714;BME280;17465;47.934;33.430;2023-02-01T08:49:57;57420.45;;;-140.43;94.32
30714;BME280;17465;47.934;33.430;2023-02-01T08:52:53;57420.45;;;-140.43;94.32
30714;BME280;17465;47.934;33.430;2023-02-01T08:55:27;57444.81;;;-140.43;96.78
30714;BME280;17465;47.934;33.430;2023-02-01T08:58:13;57433.16;;;-140.43;95.80
30714;BME280;17465;47.934;33.430;2023-02-01T09:01:25;57433.16;;;-140.43;95.80
30714;BME280;17465;47.934;33.430;2023-02-01T09:04:08;57424.69;;;-140.43;94.48
30714;BME280;17465;47.934;33.430;2023-02-01T09:06:41;57435.28;;;-140.43;94.70
30714;BME280;17465;47.934;33.430;2023-02-01T09:09:13;57433.16;;;-140.43;96.67
30714;BME280;17465;47.934;33.430;2023-02-01T09:11:47;57432.10;;;-140.43;97.89
30714;BME280;17465;47.934;33.430;2023-02-01T09:14:22;57432.10;;;-140.43;97.89
30714;BME280;17465;47.934;33.430;2023-02-01T09:16:56;57408.80;;;-140.43;97.64
30714;BME280;17465;47.934;33.430;2023-02-01T09:19:28;57408.80;;;-140.43;97.64
30714;BME280;17465;47.934;33.430;2023-02-01T09:22:07;57421.51;;;-140.43;97.45
30714;BME280;17465;47.934;33.430;2023-02-01T09:24:37;57414.10;;;-140.43;97.72
30714;BME280;17465;47.934;33.430;2023-02-01T09:27:10;57414.10;;;-140.43;97.72
30714;BME280;17465;47.934;33.430;2023-02-01T09:29:40;57444.81;;;-140.43;97.56
30714;BME280;17465;47.934;33.430;2023-02-01T09:32:22;57419.39;;;-140.43;100.00
30714;BME280;17465;47.934;33.430;2023-02-01T09:39:03;57431.04;;;-140.43;99.70
30714;BME280;17465;47.934;33.430;2023-02-01T09:50:12;57455.40;;;-140.43;100.00
30714;BME280;17465;47.934;33.430;2023-02-01T09:55:43;56736.35;;;-140.43;100.00
30714;BME280;17465;47.934;33.430;2023-02-01T10:04:15;57439.52;;;-140.43;100.00
30714;BME280;17465;47.934;33.430;2023-02-01T10:09:37;57447.99;;;-140.43;100.00
30714;BME280;17465;47.934;33.430;2023-02-01T10:15:34;57442.69;;;-140.43;100.00
30714;BME280;17465;47.934;33.430;2023-02-01T10:26:34;57458.58;;;-140.43;100.00
30714;BME280;17465;47.934;33.430;2023-02-01T10:29:11;57438.46;;;-140.43;100.00
30714;BME280;17465;47.934;33.430;2023-02-01T10:31:39;57452.23;;;-140.43;100.00
30714;BME280;17465;47.934;33.430;2023-02-01T10:34:17;57452.23;;;-140.43;100.00
30714;BME280;17465;47.934;33.430;2023-02-01T10:43:38;57440.57;;;-140.43;100.00
30714;BME280;17465;47.934;33.430;2023-02-01T10:46:05;57440.57;;;-140.43;100.00
30714;BME280;17465;47.934;33.430;2023-02-01T10:48:39;57449.05;;;-140.43;100.00
30714;BME280;17465;47.934;33.430;2023-02-01T10:51:26;57397.15;;;-140.43;100.00
30714;BME280;17465;47.934;33.430;2023-02-01T10:54:19;57415.16;;;-140.43;100.00
30714;BME280;17465;47.934;33.430;2023-02-01T10:56:49;57449.05;;;-140.43;100.00
30714;BME280;17465;47.934;33.430;2023-02-01T10:59:27;57402.45;;;-140.43;100.00
30714;BME280;17465;47.934;33.430;2023-02-01T11:02:37;57424.69;;;-140.43;100.00
30714;BME280;17465;47.934;33.430;2023-02-01T11:04:42;57418.33;;;-140.43;100.00
30714;BME280;17465;47.934;33.430;2023-02-01T11:07:23;57426.80;;;-140.43;100.00
30714;BME280;17465;47.934;33.430;2023-02-01T11:09:56;57426.80;;;-140.43;100.00
30714;BME280;17465;47.934;33.430;2023-02-01T11:12:37;57428.92;;;-140.43;99.64
30714;BME280;17465;47.934;33.430;2023-02-01T11:15:23;57424.69;;;-140.43;100.00
30714;BME280;17465;47.934;33.430;2023-02-01T11:17:53;57424.69;;;-140.43;100.00
30714;BME280;17465;47.934;33.430;2023-02-01T11:23:27;57425.75;;;-140.43;98.42
30714;BME280;17465;47.934;33.430;2023-02-01T11:26:11;57407.74;;;-140.43;98.98
30714;BME280;17465;47.934;33.430;2023-02-01T11:28:34;57407.74;;;-140.43;98.98
30714;BME280;17465;47.934;33.430;2023-02-01T11:31:12;57432.10;;;-140.43;99.02
30714;BME280;17465;47.934;33.430;2023-02-01T11:33:53;57401.39;;;-140.43;98.38
30714;BME280;17465;47.934;33.430;2023-02-01T11:36:30;57386.56;;;-140.43;96.53
30714;BME280;17465;47.934;33.430;2023-02-01T11:42:16;57404.57;;;-140.43;95.03
30714;BME280;17465;47.934;33.430;2023-02-01T11:45:19;57416.21;;;-140.43;93.75
30714;BME280;17465;47.934;33.430;2023-02-01T11:47:55;57423.63;;;-140.43;93.32
30714;BME280;17465;47.934;33.430;2023-02-01T12:08:30;57425.75;;;-140.43;95.18
30714;BME280;17465;47.934;33.430;2023-02-01T12:11:22;57425.75;;;-140.43;95.18
30714;BME280;17465;47.934;33.430;2023-02-01T12:13:59;57413.04;;;-140.43;95.64
30714;BME280;17465;47.934;33.430;2023-02-01T12:19:20;57410.92;;;-140.43;95.45
30714;BME280;17465;47.934;33.430;2023-02-01T12:36:26;57416.21;;;-140.43;94.64
30714;BME280;17465;47.934;33.430;2023-02-01T12:39:24;57420.45;;;-140.43;93.75
30714;BME280;17465;47.934;33.430;2023-02-01T12:56:38;57401.39;;;-140.43;92.17
30714;BME280;17465;47.934;33.430;2023-02-01T12:58:56;57401.39;;;-140.43;92.17
30714;BME280;17465;47.934;33.430;2023-02-01T13:01:43;57401.39;;;-140.43;87.48
30714;BME280;17465;47.934;33.430;2023-02-01T13:04:20;57403.51;;;-140.43;88.14
30714;BME280;17465;47.934;33.430;2023-02-01T13:07:57;57385.50;;;-140.43;89.20
30714;BME280;17465;47.934;33.430;2023-02-01T16:58:57;57428.92;;;-140.43;100.00
30714;BME280;17465;47.934;33.430;2023-02-01T17:01:45;57480.82;;;-140.43;100.00
30714;BME280;17465;47.934;33.430;2023-02-01T17:07:41;57452.23;;;-140.43;100.00
30714;BME280;17465;47.934;33.430;2023-02-01T17:10:27;57437.39;;;-140.43;100.00
30714;BME280;17465;47.934;33.430;2023-02-01T17:13:27;57444.81;;;-140.43;100.00
30714;BME280;17465;47.934;33.430;2023-02-01T17:19:20;57420.45;;;-140.43;100.00
30714;BME280;17465;47.934;33.430;2023-02-01T17:21:58;57462.82;;;-140.43;100.00
30714;BME280;17465;47.934;33.430;2023-02-01T17:24:50;57437.39;;;-140.43;100.00
30714;BME280;17465;47.934;33.430;2023-02-01T17:27:33;57447.99;;;-140.43;100.00
30714;BME280;17465;47.934;33.430;2023-02-01T17:30:07;57457.52;;;-140.43;100.00
30714;BME280;17465;47.934;33.430;2023-02-01T17:32:52;57447.99;;;-140.43;100.00
30714;BME280;17465;47.934;33.430;2023-02-01T17:35:19;57427.87;;;-140.43;100.00
30714;BME280;17465;47.934;33.430;2023-02-01T17:40:52;57461.76;;;-140.43;100.00
30714;BME280;17465;47.934;33.430;2023-02-01T17:43:35;57438.46;;;-140.43;100.00
30714;BME280;17465;47.934;33.430;2023-02-01T17:46:26;57438.46;;;-140.43;100.00
30714;BME280;17465;47.934;33.430;2023-02-01T17:49:08;57436.34;;;-140.43;100.00
30714;BME280;17465;47.934;33.430;2023-02-01T17:51:57;57400.33;;;-140.43;100.00
30714;BME280;17465;47.934;33.430;2023-02-01T17:54:48;57400.33;;;-140.43;100.00
30714;BME280;17465;47.934;33.430;2023-02-01T17:57:20;57426.80;;;-140.43;99.56
30714;BME280;17465;47.934;33.430;2023-02-01T18:00:11;57416.21;;;-140.43;99.77
30714;BME280;17465;47.934;33.430;2023-02-01T18:02:56;57431.04;;;-140.43;99.10
30714;BME280;17465;47.934;33.430;2023-02-01T18:05:48;57432.10;;;-140.43;99.70
30714;BME280;17465;47.934;33.430;2023-02-01T18:08:58;57432.10;;;-140.43;99.70
30714;BME280;17465;47.934;33.430;2023-02-01T18:11:49;57444.81;;;-140.43;98.96
30714;BME280;17465;47.934;33.430;2023-02-01T18:14:23;57452.23;;;-140.43;98.50
30714;BME280;17465;47.934;33.430;2023-02-01T18:17:18;57452.23;;;-140.43;98.50
30714;BME280;17465;47.934;33.430;2023-02-01T18:20:20;57451.16;;;-140.43;99.67
30714;BME280;17465;47.934;33.430;2023-02-01T18:23:08;57449.05;;;-140.43;100.00
30714;BME280;17465;47.934;33.430;2023-02-01T18:25:46;57454.34;;;-140.43;100.00
30714;BME280;17465;47.934;33.430;2023-02-01T18:28:43;57436.34;;;-140.43;100.00
30714;BME280;17465;47.934;33.430;2023-02-01T18:31:25;57421.51;;;-140.43;100.00
30714;BME280;17465;47.934;33.430;2023-02-01T18:37:13;57449.05;;;-140.43;100.00
30714;BME280;17465;47.934;33.430;2023-02-01T18:40:11;57449.05;;;-140.43;100.00
30714;BME280;17465;47.934;33.430;2023-02-01T18:42:32;57452.23;;;-140.43;100.00
30714;BME280;17465;47.934;33.430;2023-02-01T18:45:36;57452.23;;;-140.43;100.00
30714;BME280;17465;47.934;33.430;2023-02-01T18:48:09;57439.52;;;-140.43;100.00
30714;BME280;17465;47.934;33.430;2023-02-01T18:50:48;57414.10;;;-140.43;100.00
30714;BME280;17465;47.934;33.430;2023-02-01T18:53:26;57423.63;;;-140.43;100.00
30714;BME280;17465;47.934;33.430;2023-02-01T18:56:09;57423.63;;;-140.43;100.00
30714;BME280;17465;47.934;33.430;2023-02-01T18:58:51;57431.04;;;-140.43;100.00
30714;BME280;17465;47.934;33.430;2023-02-01T19:01:30;57458.58;;;-140.43;100.00
30714;BME280;17465;47.934;33.430;2023-02-01T19:07:25;57427.87;;;-140.43;100.00
30714;BME280;17465;47.934;33.430;2023-02-01T19:09:46;57427.87;;;-140.43;100.00
30714;BME280;17465;47.934;33.430;2023-02-01T19:12:17;57429.98;;;-140.43;100.00
30714;BME280;17465;47.934;33.430;2023-02-01T19:14:49;57429.98;;;-140.43;100.00
30714;BME280;17465;47.934;33.430;2023-02-01T19:17:19;57439.52;;;-140.43;100.00
30714;BME280;17465;47.934;33.430;2023-02-01T19:19:58;57407.74;;;-140.43;100.00
30714;BME280;17465;47.934;33.430;2023-02-01T19:22:30;57406.68;;;-140.43;100.00
30714;BME280;17465;47.934;33.430;2023-02-01T19:25:01;57406.68;;;-140.43;100.00
30714;BME280;17465;47.934;33.430;2023-02-01T19:27:35;57443.75;;;-140.43;100.00
30714;BME280;17465;47.934;33.430;2023-02-01T19:30:14;57455.40;;;-140.43;100.00
30714;BME280;17465;47.934;33.430;2023-02-01T19:33:08;57455.40;;;-140.43;100.00
30714;BME280;17465;47.934;33.430;2023-02-01T19:35:43;57434.22;;;-140.43;100.00
30714;BME280;17465;47.934;33.430;2023-02-01T19:38:53;57439.52;;;-140.43;100.00
30714;BME280;17465;47.934;33.430;2023-02-01T19:41:30;57454.34;;;-140.43;100.00
30714;BME280;17465;47.934;33.430;2023-02-01T19:44:19;57431.04;;;-140.43;100.00
30714;BME280;17465;47.934;33.430;2023-02-01T19:47:06;57449.05;;;-140.43;100.00
30714;BME280;17465;47.934;33.430;2023-02-01T19:49:35;57442.69;;;-140.43;100.00
30714;BME280;17465;47.934;33.430;2023-02-01T19:52:11;57442.69;;;-140.43;100.00
30714;BME280;17465;47.934;33.430;2023-02-01T19:54:41;57440.57;;;-140.43;100.00
30714;BME280;17465;47.934;33.430;2023-02-01T19:57:12;57436.34;;;-140.43;100.00
30714;BME280;17465;47.934;33.430;2023-02-01T19:59:56;57436.34;;;-140.43;100.00
30714;BME280;17465;47.934;33.430;2023-02-01T20:02:30;57449.05;;;-140.43;100.00
30714;BME280;17465;47.934;33.430;2023-02-01T20:05:07;57447.99;;;-140.43;100.00
30714;BME280;17465;47.934;33.430;2023-02-01T20:10:26;57432.10;;;-140.43;100.00
30714;BME280;17465;47.934;33.430;2023-02-01T20:12:59;57417.27;;;-140.43;100.00
30714;BME280;17465;47.934;33.430;2023-02-01T20:15:30;57458.58;;;-140.43;100.00
30714;BME280;17465;47.934;33.430;2023-02-01T20:18:01;57458.58;;;-140.43;100.00
30714;BME280;17465;47.934;33.430;2023-02-01T20:20:37;57436.34;;;-140.43;100.00
30714;BME280;17465;47.934;33.430;2023-02-01T20:23:10;57458.58;;;-140.43;100.00
30714;BME280;17465;47.934;33.430;2023-02-01T20:25:54;57442.69;;;-140.43;100.00
30714;BME280;17465;47.934;33.430;2023-02-01T20:28:31;57422.57;;;-140.43;100.00
30714;BME280;17465;47.934;33.430;2023-02-01T20:31:08;57462.82;;;-140.43;100.00
30714;BME280;17465;47.934;33.430;2023-02-01T20:33:41;57437.39;;;-140.43;100.00
30714;BME280;17465;47.934;33.430;2023-02-01T20:36:58;57423.63;;;-140.43;100.00
30714;BME280;17465;47.934;33.430;2023-02-01T20:39:52;57423.63;;;-140.43;100.00
30714;BME280;17465;47.934;33.430;2023-02-01T20:42:25;57441.63;;;-140.43;100.00
30714;BME280;17465;47.934;33.430;2023-02-01T20:45:03;57424.69;;;-140.43;100.00
30714;BME280;17465;47.934;33.430;2023-02-01T20:47:41;57454.34;;;-140.43;100.00
30714;BME280;17465;47.934;33.430;2023-02-01T20:50:24;57454.34;;;-140.43;100.00
30714;BME280;17465;47.934;33.430;2023-02-01T20:53:01;57451.16;;;-140.43;100.00
30714;BME280;17465;47.934;33.430;2023-02-01T20:55:37;57451.16;;;-140.43;100.00
30714;BME280;17465;47.934;33.430;2023-02-01T20:58:22;57458.58;;;-140.43;100.00
30714;BME280;17465;47.934;33.430;2023-02-01T21:00:41;57462.82;;;-140.43;100.00
30714;BME280;17465;47.934;33.430;2023-02-01T21:03:21;57462.82;;;-140.43;100.00
30714;BME280;17465;47.934;33.430;2023-02-01T21:06:04;57407.74;;;-140.43;100.00
30714;BME280;17465;47.934;33.430;2023-02-01T21:08:35;57443.75;;;-140.43;100.00
30714;BME280;17465;47.934;33.430;2023-02-01T21:11:11;57443.75;;;-140.43;100.00
30714;BME280;17465;47.934;33.430;2023-02-01T21:13:55;57447.99;;;-140.43;100.00
30714;BME280;17465;47.934;33.430;2023-02-01T21:16:27;57475.52;;;-140.43;100.00
30714;BME280;17465;47.934;33.430;2023-02-01T21:19:13;57462.82;;;-140.43;100.00
30714;BME280;17465;47.934;33.430;2023-02-01T21:21:49;57462.82;;;-140.43;100.00
30714;BME280;17465;47.934;33.430;2023-02-01T21:24:46;57449.05;;;-140.43;100.00
30714;BME280;17465;47.934;33.430;2023-02-01T21:27:18;57438.46;;;-140.43;100.00
30714;BME280;17465;47.934;33.430;2023-02-01T21:29:57;57438.46;;;-140.43;100.00
30714;BME280;17465;47.934;33.430;2023-02-01T21:32:46;57439.52;;;-140.43;100.00
30714;BME280;17465;47.934;33.430;2023-02-01T21:35:26;57471.29;;;-140.43;100.00
30714;BME280;17465;47.934;33.430;2023-02-01T21:38:04;57434.22;;;-140.43;100.00
30714;BME280;17465;47.934;33.430;2023-02-01T21:40:59;57443.75;;;-140.43;100.00
30714;BME280;17465;47.934;33.430;2023-02-01T21:43:27;57449.05;;;-140.43;100.00
30714;BME280;17465;47.934;33.430;2023-02-01T21:46:00;57467.05;;;-140.43;100.00
30714;BME280;17465;47.934;33.430;2023-02-01T21:48:51;57437.39;;;-140.43;100.00
30714;BME280;17465;47.934;33.430;2023-02-01T21:51:30;57432.10;;;-140.43;100.00
30714;BME280;17465;47.934;33.430;2023-02-01T21:54:29;57459.64;;;-140.43;100.00
30714;BME280;17465;47.934;33.430;2023-02-01T21:57:08;57459.64;;;-140.43;100.00
30714;BME280;17465;47.934;33.430;2023-02-01T21:59:43;57469.17;;;-140.43;100.00
30714;BME280;17465;47.934;33.430;2023-02-01T22:02:19;57451.16;;;-140.43;100.00
30714;BME280;17465;47.934;33.430;2023-02-01T22:04:52;57450.11;;;-140.43;100.00
30714;BME280;17465;47.934;33.430;2023-02-01T22:07:28;57447.99;;;-140.43;100.00
30714;BME280;17465;47.934;33.430;2023-02-01T22:10:28;57431.04;;;-140.43;100.00
